createdAt,value
2022-11-08T00:07:53.322Z,2.30
2022-11-08T00:26:30.809Z,1.20
2022-11-08T00:45:11.494Z,2.00
2022-11-08T01:03:51.374Z,1.40
2022-11-08T01:22:27.847Z,2.40
2022-11-08T02:18:26.738Z,2.40
2022-11-08T02:37:04.662Z,1.10
2022-11-08T02:55:43.170Z,2.50
2022-11-08T03:14:24.654Z,2.30
2022-11-08T03:51:41.678Z,1.10
2022-11-08T04:10:19.779Z,1.20
2022-11-08T04:28:59.942Z,1.60
2022-11-08T05:24:56.023Z,2.20
2022-11-08T05:43:35.417Z,1.50
2022-11-08T06:02:16.008Z,3.10
2022-11-08T06:20:54.704Z,3.30
2022-11-08T06:39:34.075Z,2.80
2022-11-08T06:58:13.698Z,6.60
2022-11-08T07:16:54.312Z,3.80
2022-11-08T07:35:32.749Z,5.00
2022-11-08T07:54:14.846Z,6.20
2022-11-08T08:12:56.621Z,2.50
2022-11-08T08:31:38.293Z,2.60
2022-11-08T08:50:20.219Z,2.20
2022-11-08T09:09:05.810Z,1.60
2022-11-08T09:27:53.586Z,2.00
2022-11-08T10:05:28.568Z,1.30
2022-11-08T10:24:20.596Z,1.40
2022-11-08T10:43:09.164Z,1.00
2022-11-08T11:01:56.075Z,1.10
2022-11-08T11:39:23.497Z,0.70
2022-11-08T11:58:02.759Z,1.00
2022-11-08T12:16:46.239Z,0.50
2022-11-08T13:12:32.642Z,1.00
2022-11-08T13:31:12.723Z,1.40
2022-11-08T14:08:23.383Z,1.50
2022-11-08T14:26:59.600Z,1.40
2022-11-08T14:45:33.317Z,2.20
2022-11-08T15:04:12.051Z,1.40
2022-11-08T15:22:45.856Z,3.20
2022-11-08T15:59:59.705Z,2.10
2022-11-08T16:18:39.592Z,2.60
2022-11-08T16:37:14.867Z,5.70
2022-11-08T16:55:52.788Z,4.20
2022-11-08T17:14:31.306Z,9.40
2022-11-08T17:33:09.752Z,4.60
2022-11-08T17:51:46.933Z,7.60
2022-11-08T18:10:25.415Z,6.10
2022-11-08T18:29:03.547Z,6.10
2022-11-08T18:47:41.934Z,5.10
2022-11-08T19:06:20.856Z,2.60
2022-11-08T19:43:35.128Z,2.60
2022-11-08T20:02:14.398Z,2.00
2022-11-08T20:20:55.212Z,3.20
2022-11-08T20:39:35.087Z,2.80
2022-11-08T20:58:20.358Z,2.10
2022-11-08T21:17:19.974Z,2.60
2022-11-08T21:35:31.725Z,3.10
2022-11-08T21:54:10.364Z,2.50
2022-11-08T22:12:48.646Z,4.30
2022-11-08T22:31:28.560Z,2.80
2022-11-08T22:50:07.984Z,2.60
2022-11-08T23:08:47.171Z,1.70
2022-11-08T23:27:21.643Z,2.20
2022-11-08T23:46:04.019Z,2.60
